createdAt,value
2023-03-02T00:02:13.384Z,26.85
2023-03-02T00:05:15.769Z,32.65
2023-03-02T00:08:19.355Z,28.43
2023-03-02T00:11:21.857Z,34.10
2023-03-02T00:14:23.852Z,29.00
2023-03-02T00:17:28.621Z,28.90
2023-03-02T00:20:30.969Z,28.40
2023-03-02T00:23:33.406Z,31.27
2023-03-02T00:26:36.620Z,28.83
2023-03-02T00:29:38.871Z,32.83
2023-03-02T00:32:41.836Z,30.00
2023-03-02T00:35:43.881Z,27.48
2023-03-02T00:38:45.889Z,31.10
2023-03-02T00:41:48.812Z,29.10
2023-03-02T00:44:52.561Z,21.80
2023-03-02T00:47:55.462Z,29.70
2023-03-02T00:51:01.270Z,32.17
2023-03-02T00:54:03.451Z,32.83
2023-03-02T00:57:05.500Z,33.15
2023-03-02T01:00:08.505Z,34.15
2023-03-02T01:03:13.857Z,29.00
2023-03-02T01:06:21.185Z,31.55
2023-03-02T01:09:23.737Z,26.43
2023-03-02T01:12:26.446Z,31.45
2023-03-02T01:15:28.462Z,31.60
2023-03-02T01:18:30.508Z,30.88
2023-03-02T01:21:32.822Z,30.38
2023-03-02T01:24:35.331Z,31.63
2023-03-02T01:27:37.315Z,23.90
2023-03-02T01:30:40.172Z,33.03
2023-03-02T01:33:42.372Z,31.17
2023-03-02T01:36:47.615Z,29.48
2023-03-02T01:39:51.045Z,30.97
2023-03-02T01:43:02.448Z,28.63
2023-03-02T01:46:25.719Z,32.38
2023-03-02T01:49:28.677Z,32.22
2023-03-02T01:52:35.237Z,30.02
2023-03-02T01:55:39.795Z,27.80
2023-03-02T01:58:42.297Z,29.48
2023-03-02T02:01:52.462Z,27.08
2023-03-02T02:04:56.632Z,29.63
2023-03-02T02:07:58.788Z,31.70
2023-03-02T02:11:01.849Z,30.47
2023-03-02T02:14:04.063Z,24.13
2023-03-02T02:17:06.282Z,24.10
2023-03-02T02:20:24.239Z,25.42
2023-03-02T02:23:48.153Z,23.05
2023-03-02T02:26:53.361Z,24.33
2023-03-02T02:30:00.524Z,23.83
2023-03-02T02:33:05.435Z,24.80
2023-03-02T02:36:13.424Z,22.25
2023-03-02T02:39:22.457Z,25.30
2023-03-02T02:42:38.713Z,22.43
2023-03-02T02:45:41.220Z,26.55
2023-03-02T02:48:44.317Z,24.20
2023-03-02T02:51:46.510Z,20.60
2023-03-02T02:54:51.757Z,20.50
2023-03-02T02:57:58.186Z,20.10
2023-03-02T03:01:02.103Z,24.33
2023-03-02T03:04:06.314Z,19.02
2023-03-02T03:07:13.446Z,23.65
2023-03-02T03:10:23.307Z,21.13
2023-03-02T03:13:25.571Z,21.13
2023-03-02T03:16:30.695Z,18.45
2023-03-02T03:19:33.856Z,19.90
2023-03-02T03:22:38.180Z,24.02
2023-03-02T03:25:41.782Z,22.77
2023-03-02T03:28:44.405Z,20.60
2023-03-02T03:31:46.669Z,21.17
2023-03-02T03:34:49.620Z,22.15
2023-03-02T03:37:52.496Z,19.30
2023-03-02T03:40:55.266Z,20.55
2023-03-02T03:43:57.921Z,21.40
2023-03-02T03:47:00.490Z,23.73
2023-03-02T03:50:03.878Z,24.10
2023-03-02T03:53:08.703Z,19.00
2023-03-02T03:56:11.251Z,20.98
2023-03-02T03:59:18.210Z,19.30
2023-03-02T04:02:21.280Z,20.55
2023-03-02T04:05:23.648Z,18.38
2023-03-02T04:08:26.532Z,16.73
2023-03-02T04:11:28.774Z,21.23
2023-03-02T04:14:31.646Z,22.33
2023-03-02T04:17:34.104Z,18.15
2023-03-02T04:20:37.590Z,23.42
2023-03-02T04:23:40.245Z,18.50
2023-03-02T04:26:44.886Z,17.20
2023-03-02T04:29:47.422Z,18.83
2023-03-02T04:32:49.889Z,18.52
2023-03-02T04:35:52.026Z,20.00
2023-03-02T04:38:55.024Z,18.17
2023-03-02T04:41:59.838Z,15.45
2023-03-02T04:45:02.293Z,20.13
2023-03-02T04:48:06.046Z,23.58
2023-03-02T04:51:24.290Z,21.35
2023-03-02T04:54:27.037Z,18.20
2023-03-02T04:57:30.360Z,24.15
2023-03-02T05:00:34.315Z,18.17
2023-03-02T05:03:36.406Z,16.23
2023-03-02T05:06:38.618Z,17.35
2023-03-02T05:09:41.076Z,16.33
2023-03-02T05:13:02.452Z,16.60
2023-03-02T05:16:05.529Z,17.20
2023-03-02T05:19:10.396Z,14.35
2023-03-02T05:22:12.460Z,19.38
2023-03-02T05:25:14.715Z,11.90
2023-03-02T05:28:18.001Z,15.70
2023-03-02T05:31:24.311Z,12.73
2023-03-02T05:34:26.439Z,14.52
2023-03-02T05:37:28.443Z,16.23
2023-03-02T05:40:31.371Z,17.27
2023-03-02T05:43:34.034Z,17.58
2023-03-02T05:46:38.771Z,14.33
2023-03-02T05:49:42.179Z,14.45
2023-03-02T05:52:45.745Z,14.68
2023-03-02T05:55:48.241Z,17.58
2023-03-02T05:58:50.276Z,16.80
2023-03-02T06:01:58.818Z,18.80
2023-03-02T06:05:01.605Z,13.07
2023-03-02T06:08:04.802Z,14.85
2023-03-02T06:11:08.039Z,12.55
2023-03-02T06:14:10.141Z,14.38
2023-03-02T06:17:12.417Z,16.73
2023-03-02T06:20:15.489Z,16.88
2023-03-02T06:23:17.629Z,11.20
2023-03-02T06:26:19.729Z,13.38
2023-03-02T06:29:23.372Z,16.88
2023-03-02T06:32:27.351Z,16.23
2023-03-02T06:35:29.807Z,18.67
2023-03-02T06:38:32.248Z,17.98
2023-03-02T06:41:34.719Z,18.35
2023-03-02T06:44:36.991Z,19.52
2023-03-02T06:47:39.449Z,20.27
2023-03-02T06:50:42.489Z,16.17
2023-03-02T06:53:49.082Z,19.23
2023-03-02T06:56:51.457Z,17.77
2023-03-02T06:59:55.348Z,11.88
2023-03-02T07:03:15.002Z,16.80
2023-03-02T07:06:18.868Z,19.42
2023-03-02T07:09:22.560Z,18.05
2023-03-02T07:12:28.167Z,16.77
2023-03-02T07:15:33.828Z,17.55
2023-03-02T07:18:41.320Z,19.27
2023-03-02T07:21:43.864Z,15.82
2023-03-02T07:24:50.085Z,22.25
2023-03-02T07:27:52.851Z,15.63
2023-03-02T07:30:59.870Z,13.68
2023-03-02T07:34:05.459Z,16.97
2023-03-02T07:37:08.865Z,16.38
2023-03-02T07:40:13.118Z,19.17
2023-03-02T07:43:21.029Z,14.55
2023-03-02T07:46:41.875Z,16.23
2023-03-02T07:49:59.122Z,11.77
2023-03-02T07:53:03.210Z,11.13
2023-03-02T07:56:10.287Z,16.02
2023-03-02T07:59:17.437Z,16.23
2023-03-02T08:02:22.604Z,15.35
2023-03-02T08:05:54.810Z,14.80
2023-03-02T08:09:16.822Z,12.05
2023-03-02T08:13:36.188Z,11.60
2023-03-02T08:16:51.994Z,13.73
2023-03-02T08:19:57.022Z,12.25
2023-03-02T08:23:05.814Z,17.10
2023-03-02T08:26:11.021Z,13.48
2023-03-02T08:29:15.224Z,11.65
2023-03-02T08:32:21.917Z,12.75
2023-03-02T08:35:25.444Z,12.25
2023-03-02T08:38:30.582Z,8.17
2023-03-02T08:41:35.617Z,12.00
2023-03-02T08:44:39.762Z,11.93
2023-03-02T08:47:42.479Z,12.55
2023-03-02T08:50:57.293Z,11.63
2023-03-02T08:54:00.882Z,8.33
2023-03-02T08:57:11.904Z,11.88
2023-03-02T09:00:18.051Z,14.50
2023-03-02T09:03:29.240Z,11.57
2023-03-02T09:06:39.413Z,9.63
2023-03-02T09:09:43.255Z,6.03
2023-03-02T09:12:54.341Z,13.95
2023-03-02T09:16:22.179Z,13.40
2023-03-02T09:19:44.264Z,9.93
2023-03-02T09:22:55.433Z,15.38
2023-03-02T09:25:59.954Z,8.40
2023-03-02T09:29:14.189Z,10.95
2023-03-02T09:32:35.945Z,10.70
2023-03-02T09:35:44.948Z,14.57
2023-03-02T09:39:06.994Z,10.30
2023-03-02T09:46:25.810Z,14.73
2023-03-02T09:50:04.442Z,11.07
2023-03-02T09:53:46.102Z,11.10
2023-03-02T10:00:41.910Z,10.00
2023-03-02T10:04:05.424Z,6.97
2023-03-02T10:12:18.007Z,11.73
2023-03-02T10:16:02.497Z,8.05
2023-03-02T10:19:32.800Z,9.77
2023-03-02T10:22:46.380Z,6.93
2023-03-02T10:26:05.254Z,7.63
2023-03-02T10:29:11.017Z,8.50
2023-03-02T10:32:22.556Z,9.80
2023-03-02T10:35:28.114Z,9.47
2023-03-02T10:38:32.974Z,6.03
2023-03-02T10:41:43.690Z,6.90
2023-03-02T10:44:56.153Z,7.68
2023-03-02T10:48:23.589Z,9.00
2023-03-02T10:51:44.138Z,9.97
2023-03-02T10:54:50.286Z,7.80
2023-03-02T11:07:36.179Z,11.20
2023-03-02T11:10:51.098Z,9.27
2023-03-02T11:13:57.245Z,10.85
2023-03-02T11:17:23.961Z,9.82
2023-03-02T11:20:42.067Z,10.90
2023-03-02T11:24:19.691Z,7.32
2023-03-02T11:27:28.550Z,11.80
2023-03-02T11:30:40.015Z,10.30
2023-03-02T11:34:24.995Z,9.57
2023-03-02T11:37:52.663Z,9.10
2023-03-02T11:41:01.016Z,9.73
2023-03-02T11:44:40.282Z,9.30
2023-03-02T11:48:03.303Z,10.55
2023-03-02T11:51:15.101Z,9.68
2023-03-02T11:54:47.311Z,10.93
2023-03-02T11:57:57.875Z,10.48
2023-03-02T12:01:04.801Z,9.97
2023-03-02T12:08:07.348Z,9.05
2023-03-02T12:11:22.187Z,11.82
2023-03-02T12:14:31.778Z,8.57
2023-03-02T12:17:48.326Z,9.47
2023-03-02T12:21:09.485Z,8.55
2023-03-02T12:24:29.296Z,8.73
2023-03-02T12:27:43.233Z,10.90
2023-03-02T12:30:57.393Z,10.73
2023-03-02T12:34:32.951Z,8.53
2023-03-02T12:37:59.892Z,10.75
2023-03-02T12:42:06.025Z,9.13
2023-03-02T12:45:38.652Z,8.82
2023-03-02T12:49:00.037Z,8.15
2023-03-02T12:52:37.075Z,10.33
2023-03-02T12:55:39.849Z,10.23
2023-03-02T12:58:56.114Z,8.63
2023-03-02T13:02:14.596Z,8.35
2023-03-02T13:05:23.559Z,8.05
2023-03-02T13:08:29.197Z,7.93
2023-03-02T13:11:35.132Z,7.53
2023-03-02T13:14:43.157Z,13.75
2023-03-02T13:17:55.285Z,8.60
2023-03-02T13:21:38.872Z,10.05
2023-03-02T13:25:00.588Z,13.13
2023-03-02T13:28:08.248Z,8.80
2023-03-02T13:31:30.311Z,11.23
2023-03-02T13:34:38.235Z,8.48
2023-03-02T13:37:44.757Z,8.10
2023-03-02T13:40:52.447Z,7.00
2023-03-02T13:44:23.903Z,9.30
2023-03-02T13:47:28.934Z,8.73
2023-03-02T13:50:33.359Z,7.43
2023-03-02T13:53:38.436Z,7.95
2023-03-02T13:56:47.170Z,10.57
2023-03-02T13:59:53.413Z,9.70
2023-03-02T14:02:57.613Z,8.23
2023-03-02T14:06:09.157Z,8.70
2023-03-02T14:09:16.296Z,7.32
2023-03-02T14:12:38.359Z,7.73
2023-03-02T14:15:51.932Z,7.60
2023-03-02T14:19:24.987Z,9.07
2023-03-02T14:22:42.033Z,9.68
2023-03-02T14:25:50.102Z,10.25
2023-03-02T14:29:04.903Z,6.73
2023-03-02T14:32:11.152Z,7.60
2023-03-02T14:35:19.909Z,8.85
2023-03-02T14:38:25.499Z,7.30
2023-03-02T14:41:29.379Z,6.85
2023-03-02T14:44:33.297Z,9.70
2023-03-02T14:47:35.576Z,9.18
2023-03-02T14:50:46.044Z,7.57
2023-03-02T14:53:52.646Z,9.10
2023-03-02T14:56:55.200Z,5.82
2023-03-02T15:00:10.657Z,4.97
2023-03-02T15:03:37.521Z,7.10
2023-03-02T15:06:43.660Z,8.07
2023-03-02T15:09:49.165Z,7.50
2023-03-02T15:12:52.236Z,7.38
2023-03-02T15:15:57.619Z,8.03
2023-03-02T15:19:03.012Z,7.88
2023-03-02T15:22:05.582Z,9.10
2023-03-02T15:25:08.638Z,9.05
2023-03-02T15:28:11.161Z,7.90
2023-03-02T15:31:16.818Z,8.50
2023-03-02T15:34:19.835Z,10.57
2023-03-02T15:37:24.004Z,10.77
2023-03-02T15:40:26.470Z,8.10
2023-03-02T15:43:34.149Z,10.88
2023-03-02T15:46:36.581Z,10.00
2023-03-02T15:49:39.685Z,9.88
2023-03-02T15:52:49.725Z,7.57
2023-03-02T15:55:52.801Z,8.98
2023-03-02T15:58:55.711Z,8.63
2023-03-02T16:01:59.896Z,9.23
2023-03-02T16:05:05.508Z,13.68
2023-03-02T16:08:11.696Z,12.27
2023-03-02T16:11:18.743Z,9.63
2023-03-02T16:14:21.115Z,11.27
2023-03-02T16:17:23.687Z,15.00
2023-03-02T16:20:29.109Z,11.75
2023-03-02T16:23:31.971Z,15.85
2023-03-02T16:26:37.822Z,11.25
2023-03-02T16:29:43.720Z,14.52
2023-03-02T16:32:46.998Z,12.10
2023-03-02T16:35:53.699Z,13.15
2023-03-02T16:38:56.142Z,13.85
2023-03-02T16:42:01.638Z,18.83
2023-03-02T16:45:05.957Z,14.82
2023-03-02T16:48:08.767Z,17.00
2023-03-02T16:51:13.178Z,18.75
2023-03-02T16:54:22.660Z,15.70
2023-03-02T16:57:25.403Z,13.98
2023-03-02T17:00:31.525Z,14.93
2023-03-02T17:03:34.219Z,16.27
2023-03-02T17:06:40.104Z,20.45
2023-03-02T17:09:44.458Z,20.25
2023-03-02T17:12:47.020Z,22.60
2023-03-02T17:15:50.448Z,20.63
2023-03-02T17:18:53.424Z,21.30
2023-03-02T17:22:00.748Z,21.95
2023-03-02T17:25:04.729Z,20.83
2023-03-02T17:28:07.464Z,19.20
2023-03-02T17:31:10.747Z,21.83
2023-03-02T17:34:14.819Z,19.43
2023-03-02T17:37:18.261Z,24.58
2023-03-02T17:40:22.415Z,19.73
2023-03-02T17:43:24.717Z,23.17
2023-03-02T17:46:27.564Z,23.67
2023-03-02T17:49:31.131Z,23.13
2023-03-02T17:52:33.480Z,23.52
2023-03-02T17:55:36.206Z,25.65
2023-03-02T17:58:44.979Z,24.90
2023-03-02T18:01:48.744Z,24.50
2023-03-02T18:04:51.373Z,25.93
2023-03-02T18:07:54.878Z,25.45
2023-03-02T18:10:57.503Z,31.55
2023-03-02T18:14:00.478Z,22.83
2023-03-02T18:17:05.750Z,25.08
2023-03-02T18:20:10.066Z,24.77
2023-03-02T18:23:14.388Z,23.42
2023-03-02T18:26:17.350Z,22.83
2023-03-02T18:29:20.752Z,26.05
2023-03-02T18:32:23.544Z,28.02
2023-03-02T18:35:26.356Z,26.03
2023-03-02T18:38:31.090Z,27.88
2023-03-02T18:41:34.776Z,26.60
2023-03-02T18:44:37.529Z,27.67
2023-03-02T18:47:46.291Z,25.83
2023-03-02T18:50:49.319Z,25.97
2023-03-02T18:53:53.815Z,23.70
2023-03-02T18:56:56.481Z,25.63
2023-03-02T18:59:58.670Z,30.33
2023-03-02T19:03:02.525Z,25.90
2023-03-02T19:06:07.508Z,29.07
2023-03-02T19:09:11.347Z,26.00
2023-03-02T19:12:14.097Z,24.98
2023-03-02T19:15:16.673Z,30.90
2023-03-02T19:18:21.090Z,29.30
2023-03-02T19:21:24.144Z,28.13
2023-03-02T19:24:26.651Z,30.42
2023-03-02T19:27:30.412Z,23.83
2023-03-02T19:30:37.001Z,28.38
2023-03-02T19:33:42.132Z,25.88
2023-03-02T19:36:45.082Z,28.10
2023-03-02T19:39:47.791Z,24.83
2023-03-02T19:42:53.250Z,28.35
2023-03-02T19:45:56.801Z,29.63
2023-03-02T19:49:00.577Z,30.73
2023-03-02T19:52:04.659Z,32.27
2023-03-02T19:55:10.050Z,28.75
2023-03-02T19:58:17.883Z,25.42
2023-03-02T20:01:24.926Z,25.23
2023-03-02T20:04:28.536Z,24.38
2023-03-02T20:07:31.452Z,30.60
2023-03-02T20:10:37.707Z,27.23
2023-03-02T20:13:40.484Z,26.45
2023-03-02T20:16:43.385Z,26.42
2023-03-02T20:19:49.698Z,27.70
2023-03-02T20:22:52.573Z,30.80
2023-03-02T20:25:55.783Z,34.38
2023-03-02T20:28:59.794Z,36.95
2023-03-02T20:32:06.241Z,36.45
2023-03-02T20:35:10.639Z,34.13
2023-03-02T20:38:20.744Z,34.93
2023-03-02T20:41:23.640Z,31.90
2023-03-02T20:44:27.022Z,39.50
2023-03-02T20:47:30.305Z,31.92
2023-03-02T20:50:35.218Z,41.63
2023-03-02T20:53:37.671Z,43.17
2023-03-02T20:56:40.456Z,37.15
2023-03-02T20:59:46.148Z,40.75
2023-03-02T21:02:49.985Z,36.75
2023-03-02T21:05:52.827Z,33.58
2023-03-02T21:08:57.046Z,30.50
2023-03-02T21:11:59.803Z,27.70
2023-03-02T21:15:03.913Z,28.92
2023-03-02T21:18:06.220Z,29.63
2023-03-02T21:21:08.783Z,26.50
2023-03-02T21:24:14.714Z,25.03
2023-03-02T21:27:17.335Z,24.95
2023-03-02T21:30:31.831Z,26.30
2023-03-02T21:33:34.537Z,24.83
2023-03-02T21:36:36.895Z,27.98
2023-03-02T21:39:39.201Z,30.90
2023-03-02T21:42:43.615Z,29.20
2023-03-02T21:45:46.901Z,28.45
2023-03-02T21:48:50.719Z,30.77
2023-03-02T21:51:52.718Z,29.10
2023-03-02T21:54:55.103Z,31.33
2023-03-02T21:57:58.558Z,25.25
2023-03-02T22:01:03.941Z,26.42
2023-03-02T22:04:06.563Z,31.75
2023-03-02T22:07:09.115Z,27.80
2023-03-02T22:10:33.680Z,32.47
2023-03-02T22:13:37.570Z,30.45
2023-03-02T22:16:42.484Z,29.35
2023-03-02T22:19:45.083Z,26.60
2023-03-02T22:22:49.967Z,29.85
2023-03-02T22:26:00.936Z,30.20
2023-03-02T22:29:13.477Z,28.83
2023-03-02T22:32:24.779Z,28.13
2023-03-02T22:35:28.103Z,29.35
2023-03-02T22:38:34.484Z,28.95
2023-03-02T22:41:36.740Z,32.73
2023-03-02T22:44:39.612Z,36.10
2023-03-02T22:47:43.747Z,36.58
2023-03-02T22:50:49.367Z,38.28
2023-03-02T22:53:53.669Z,39.40
2023-03-02T22:56:57.929Z,44.67
2023-03-02T23:00:14.343Z,39.67
2023-03-02T23:03:28.169Z,42.10
2023-03-02T23:06:38.320Z,47.35
2023-03-02T23:09:40.938Z,43.85
2023-03-02T23:12:43.836Z,37.30
2023-03-02T23:15:47.740Z,37.63
2023-03-02T23:18:51.136Z,37.38
2023-03-02T23:21:53.773Z,36.03
2023-03-02T23:24:56.727Z,33.13
2023-03-02T23:27:59.186Z,30.07
2023-03-02T23:31:01.534Z,34.28
2023-03-02T23:34:04.340Z,33.47
2023-03-02T23:37:06.659Z,27.30
2023-03-02T23:40:10.183Z,31.77
2023-03-02T23:43:12.498Z,30.37
2023-03-02T23:46:15.517Z,29.45
2023-03-02T23:49:18.004Z,30.90
2023-03-02T23:52:20.550Z,32.22
2023-03-02T23:55:24.228Z,33.42
2023-03-02T23:58:26.677Z,33.10
